Time;durP1;ratioP1;P1;durP2;ratioP2;P2;SDS_P1;SDS_P2;PMS_P1;PMS_P2;Temp;Humidity;BMP_temperature;BMP_pressure;BME280_temperature;BME280_humidity;BME280_pressure;Samples;Min_cycle;Max_cycle;Signal;HPM_P1;HPM_P2
2022/05/11 00:00:50;;;;;;;11.98;10.18;;;;;14.70;96458.00;;;;8347555;28;20310;-74
2022/05/11 00:04:53;;;;;;;14.07;10.73;;;;;14.80;96447.00;;;;8312197;28;20228;-72
2022/05/11 00:08:57;;;;;;;13.32;10.15;;;;;14.80;96451.00;;;;8349623;28;20300;-73
2022/05/11 00:13:01;;;;;;;11.95;10.00;;;;;14.90;96452.00;;;;8334927;28;20858;-72
2022/05/11 00:17:05;;;;;;;13.25;11.15;;;;;15.00;96449.00;;;;8342085;28;20312;-73
2022/05/11 00:21:09;;;;;;;13.05;10.95;;;;;15.10;96439.00;;;;8339982;28;20301;-74
2022/05/11 00:25:15;;;;;;;14.25;11.10;;;;;15.10;96431.00;;;;8336790;28;20812;-73
2022/05/11 00:29:18;;;;;;;17.08;10.80;;;;;15.10;96434.00;;;;8346149;28;20686;-73
2022/05/11 00:33:24;;;;;;;12.80;10.73;;;;;15.20;96429.00;;;;8333158;28;20231;-74
2022/05/11 00:37:29;;;;;;;13.23;10.40;;;;;15.20;96429.00;;;;8339309;28;20322;-73
2022/05/11 00:41:32;;;;;;;13.82;10.75;;;;;15.30;96428.00;;;;8334687;28;20235;-72
2022/05/11 00:45:36;;;;;;;12.13;10.60;;;;;15.30;96424.00;;;;8340493;28;20235;-75
2022/05/11 00:49:48;;;;;;;12.32;10.52;;;;;15.30;96424.00;;;;8337638;28;20624;-74
2022/05/11 00:53:54;;;;;;;14.05;11.32;;;;;15.30;96415.00;;;;8338983;28;20218;-72
2022/05/11 00:58:01;;;;;;;11.23;9.75;;;;;15.30;96422.00;;;;8343146;28;20304;-71
2022/05/11 01:02:06;;;;;;;15.80;11.32;;;;;15.20;96418.00;;;;8331749;28;20234;-72
2022/05/11 01:06:13;;;;;;;14.52;10.15;;;;;15.20;96414.00;;;;8335271;28;20656;-73
2022/05/11 01:10:16;;;;;;;13.60;10.18;;;;;15.10;96417.00;;;;8344971;28;20235;-71
2022/05/11 01:14:26;;;;;;;16.38;10.25;;;;;15.10;96415.00;;;;8329086;28;20706;-73
2022/05/11 01:18:30;;;;;;;11.73;9.35;;;;;15.00;96417.00;;;;8333581;28;20303;-74
2022/05/11 01:22:41;;;;;;;13.73;10.55;;;;;14.90;96403.00;;;;8342263;28;20228;-74
2022/05/11 01:26:46;;;;;;;14.05;10.50;;;;;14.90;96403.00;;;;8331127;28;20232;-73
2022/05/11 01:30:52;;;;;;;16.73;11.60;;;;;14.90;96402.00;;;;8344832;28;20679;-75
2022/05/11 01:35:04;;;;;;;11.85;10.00;;;;;14.80;96396.00;;;;8348540;28;20335;-74
2022/05/11 01:39:10;;;;;;;16.13;10.32;;;;;14.70;96395.00;;;;8344898;28;20220;-72
2022/05/11 01:43:20;;;;;;;14.80;11.02;;;;;14.60;96399.00;;;;8345026;28;20362;-73
2022/05/11 01:47:24;;;;;;;13.98;11.10;;;;;14.60;96394.00;;;;8346794;28;20634;-72
2022/05/11 01:51:27;;;;;;;13.10;10.88;;;;;14.60;96389.00;;;;8345572;28;20235;-71
2022/05/11 01:55:30;;;;;;;13.95;10.65;;;;;14.60;96388.00;;;;8343752;28;20239;-72
2022/05/11 01:59:35;;;;;;;17.80;11.25;;;;;14.60;96392.00;;;;8345785;28;20254;-72
2022/05/11 02:03:38;;;;;;;14.98;11.38;;;;;14.60;96397.00;;;;8339939;28;20271;-74
2022/05/11 02:07:50;;;;;;;12.65;10.73;;;;;14.60;96391.00;;;;8332028;28;20236;-72
2022/05/11 02:11:53;;;;;;;16.40;12.20;;;;;14.60;96391.00;;;;8343864;28;20328;-72
2022/05/11 02:15:57;;;;;;;17.45;11.75;;;;;14.60;96383.00;;;;8338525;28;20773;-72
2022/05/11 02:20:01;;;;;;;12.18;10.88;;;;;14.70;96389.00;;;;8337757;28;21115;-73
2022/05/11 02:24:04;;;;;;;17.05;12.52;;;;;14.70;96398.00;;;;8343233;28;20774;-74
2022/05/11 02:28:07;;;;;;;21.25;12.32;;;;;14.70;96390.00;;;;8342893;28;20232;-74
2022/05/11 02:32:12;;;;;;;14.95;11.70;;;;;14.60;96395.00;;;;8339601;28;20846;-75
2022/05/11 02:36:15;;;;;;;23.70;13.23;;;;;14.60;96398.00;;;;8337542;28;20232;-74
2022/05/11 02:40:21;;;;;;;18.25;13.25;;;;;14.50;96399.00;;;;8343976;28;20227;-73
2022/05/11 02:44:24;;;;;;;16.05;12.18;;;;;14.40;96401.00;;;;8345236;28;20227;-71
2022/05/11 02:48:31;;;;;;;18.88;12.38;;;;;14.40;96398.00;;;;8342234;28;20716;-74
2022/05/11 02:52:34;;;;;;;16.08;12.73;;;;;14.30;96400.00;;;;8338343;28;20724;-73
2022/05/11 02:56:37;;;;;;;19.85;13.10;;;;;14.30;96400.00;;;;8335268;28;20235;-75
2022/05/11 03:00:44;;;;;;;20.95;13.52;;;;;14.30;96399.00;;;;8363890;23;20303;-69
2022/05/11 03:04:49;;;;;;;15.35;12.52;;;;;14.30;96399.00;;;;8345596;22;20225;-71
2022/05/11 03:08:52;;;;;;;21.08;13.63;;;;;14.20;96399.00;;;;8342817;28;20243;-69
2022/05/11 03:12:56;;;;;;;17.42;13.23;;;;;14.10;96400.00;;;;8353682;28;20245;-69
2022/05/11 03:16:59;;;;;;;18.38;13.27;;;;;14.00;96404.00;;;;8349230;28;20251;-69
2022/05/11 03:21:04;;;;;;;20.85;14.07;;;;;13.90;96408.00;;;;8346408;28;20230;-71
2022/05/11 03:25:09;;;;;;;19.17;13.50;;;;;13.80;96403.00;;;;8353793;28;20823;-72
2022/05/11 03:29:13;;;;;;;18.52;14.05;;;;;13.70;96411.00;;;;8355297;28;20733;-74
2022/05/11 03:37:39;;;;;;;18.58;14.23;;;;;13.40;96403.00;;;;8356882;28;20305;-71
2022/05/11 03:41:42;;;;;;;18.63;13.88;;;;;13.30;96410.00;;;;8355695;28;20329;-72
2022/05/11 03:45:46;;;;;;;23.05;14.73;;;;;13.10;96398.00;;;;8353950;28;20236;-72
2022/05/11 03:49:49;;;;;;;23.30;15.13;;;;;13.00;96411.00;;;;8346058;28;20241;-72
2022/05/11 03:53:54;;;;;;;20.25;14.50;;;;;12.90;96401.00;;;;8352434;28;20788;-71
2022/05/11 03:57:57;;;;;;;23.77;15.35;;;;;12.90;96399.00;;;;8354524;28;20243;-72
2022/05/11 04:02:00;;;;;;;24.40;16.00;;;;;12.80;96400.00;;;;8354989;28;20312;-72
2022/05/11 04:06:04;;;;;;;27.50;15.93;;;;;12.80;96400.00;;;;8337846;28;20223;-77
2022/05/11 04:10:12;;;;;;;22.23;15.48;;;;;12.80;96402.00;;;;8352979;28;20663;-72
2022/05/11 04:14:16;;;;;;;24.20;15.80;;;;;12.80;96393.00;;;;8358904;28;20219;-76
2022/05/11 04:18:19;;;;;;;19.70;14.07;;;;;12.80;96396.00;;;;8365777;28;20328;-74
2022/05/11 04:22:23;;;;;;;22.25;15.57;;;;;12.80;96406.00;;;;8366386;28;21005;-72
2022/05/11 04:26:30;;;;;;;25.90;16.35;;;;;12.90;96404.00;;;;8351348;28;20959;-70
2022/05/11 04:30:34;;;;;;;28.05;16.27;;;;;13.00;96403.00;;;;8361498;28;20677;-73
2022/05/11 04:34:39;;;;;;;26.05;16.00;;;;;13.10;96401.00;;;;8363080;28;20990;-76
2022/05/11 04:38:42;;;;;;;26.27;16.63;;;;;13.30;96405.00;;;;8361680;28;20317;-73
2022/05/11 04:42:47;;;;;;;27.27;16.38;;;;;13.50;96409.00;;;;8339768;28;21799;-72
2022/05/11 04:46:50;;;;;;;22.48;16.23;;;;;13.80;96412.00;;;;8353337;28;20230;-73
2022/05/11 04:50:59;;;;;;;21.38;15.27;;;;;14.10;96412.00;;;;8348110;28;20569;-77
2022/05/11 04:55:03;;;;;;;23.13;15.50;;;;;14.50;96418.00;;;;8357520;28;20234;-75
2022/05/11 04:59:08;;;;;;;19.60;14.30;;;;;14.90;96429.00;;;;8349641;28;20659;-71
2022/05/11 05:03:13;;;;;;;18.58;13.45;;;;;15.40;96428.00;;;;8352785;28;20652;-70
2022/05/11 05:07:17;;;;;;;25.10;14.35;;;;;15.80;96422.00;;;;8358376;28;20555;-73
2022/05/11 05:11:20;;;;;;;17.75;13.48;;;;;16.10;96424.00;;;;8354091;28;20228;-71
2022/05/11 05:15:24;;;;;;;19.17;12.68;;;;;16.50;96432.00;;;;8355577;28;20224;-76
2022/05/11 05:19:27;;;;;;;18.83;13.07;;;;;16.80;96436.00;;;;8357321;28;20242;-71
2022/05/11 05:23:31;;;;;;;20.65;12.90;;;;;17.30;96440.00;;;;8356584;28;20228;-74
2022/05/11 05:27:34;;;;;;;14.10;11.45;;;;;17.80;96435.00;;;;8347237;28;20231;-74
2022/05/11 05:31:39;;;;;;;17.48;11.93;;;;;18.30;96448.00;;;;8353850;28;20563;-76
2022/05/11 05:35:42;;;;;;;15.80;11.07;;;;;18.70;96441.00;;;;8356402;28;20803;-69
2022/05/11 05:39:46;;;;;;;15.38;11.60;;;;;19.20;96439.00;;;;8351141;28;20224;-72
2022/05/11 05:43:49;;;;;;;14.23;12.07;;;;;19.70;96443.00;;;;8347170;28;20231;-71
2022/05/11 05:47:53;;;;;;;14.02;11.25;;;;;20.20;96449.00;;;;8345451;28;20626;-73
2022/05/11 05:51:56;;;;;;;13.63;10.82;;;;;20.50;96450.00;;;;8346623;28;20240;-73
2022/05/11 05:56:00;;;;;;;15.90;11.20;;;;;21.00;96449.00;;;;8351826;28;20224;-72
2022/05/11 06:00:03;;;;;;;23.15;11.52;;;;;21.40;96457.00;;;;8341311;28;20236;-69
2022/05/11 06:04:08;;;;;;;14.57;10.10;;;;;21.70;96460.00;;;;8333747;28;20229;-71
2022/05/11 06:08:15;;;;;;;13.85;11.00;;;;;21.90;96456.00;;;;8339752;28;20224;-71
2022/05/11 06:12:18;;;;;;;15.45;9.95;;;;;22.20;96464.00;;;;8344213;28;20232;-68
2022/05/11 06:16:21;;;;;;;12.77;10.10;;;;;22.20;96462.00;;;;8343693;28;20224;-71
2022/05/11 06:20:26;;;;;;;12.38;9.93;;;;;22.20;96466.00;;;;8338995;28;23132;-75
2022/05/11 06:24:30;;;;;;;14.15;10.02;;;;;22.30;96465.00;;;;8345389;28;20290;-72
2022/05/11 06:28:36;;;;;;;15.95;9.63;;;;;22.10;96469.00;;;;8345456;28;20233;-69
2022/05/11 06:32:55;;;;;;;13.55;9.90;;;;;22.20;96465.00;;;;8338961;28;20298;-69
2022/05/11 06:36:59;;;;;;;11.82;9.23;;;;;22.30;96466.00;;;;8343084;28;20242;-68
2022/05/11 06:41:08;;;;;;;12.25;9.88;;;;;22.40;96457.00;;;;8347462;28;20221;-70
2022/05/11 06:45:12;;;;;;;12.32;9.13;;;;;23.00;96469.00;;;;8343110;28;20563;-69
2022/05/11 06:49:15;;;;;;;13.30;9.55;;;;;23.70;96464.00;;;;8340162;28;20220;-73
2022/05/11 06:53:20;;;;;;;16.70;9.50;;;;;24.10;96470.00;;;;8340224;28;20224;-70
2022/05/11 07:01:44;;;;;;;14.40;8.98;;;;;24.90;96462.00;;;;8347686;28;20224;-69
2022/05/11 07:05:48;;;;;;;15.00;9.32;;;;;24.90;96462.00;;;;8343160;28;20229;-71
2022/05/11 07:09:53;;;;;;;13.82;9.85;;;;;25.20;96458.00;;;;8345576;28;21368;-68
2022/05/11 07:13:56;;;;;;;13.32;9.38;;;;;25.80;96458.00;;;;8346496;28;20346;-70
2022/05/11 07:18:01;;;;;;;13.38;9.85;;;;;26.00;96460.00;;;;8341517;28;20933;-74
2022/05/11 07:22:05;;;;;;;11.02;9.38;;;;;26.80;96457.00;;;;8345285;28;20224;-74
2022/05/11 07:26:09;;;;;;;12.57;9.40;;;;;27.40;96452.00;;;;8341159;28;20212;-70
2022/05/11 07:30:15;;;;;;;17.35;8.52;;;;;27.90;96462.00;;;;8347980;28;20792;-67
2022/05/11 07:34:19;;;;;;;11.50;8.38;;;;;28.40;96456.00;;;;8340333;28;20229;-72
2022/05/11 07:38:22;;;;;;;11.38;7.85;;;;;29.00;96454.00;;;;8353432;28;20302;-68
2022/05/11 07:42:27;;;;;;;10.57;8.20;;;;;29.40;96457.00;;;;8347322;28;20872;-68
2022/05/11 07:46:34;;;;;;;8.98;8.07;;;;;29.70;96462.00;;;;8349705;28;20228;-73
2022/05/11 07:50:38;;;;;;;10.70;7.60;;;;;30.10;96456.00;;;;8344501;28;20239;-71
2022/05/11 07:54:41;;;;;;;10.27;8.07;;;;;30.10;96453.00;;;;8343275;28;20224;-72
2022/05/11 08:03:08;;;;;;;12.82;7.43;;;;;30.80;96462.00;;;;8348406;28;20232;-72
2022/05/11 08:07:13;;;;;;;8.07;7.28;;;;;31.00;96457.00;;;;8348229;28;20759;-72
2022/05/11 08:11:17;;;;;;;10.73;7.82;;;;;31.20;96461.00;;;;8341316;28;20293;-72
2022/05/11 08:15:24;;;;;;;8.57;7.22;;;;;31.50;96459.00;;;;8339804;28;20854;-72
2022/05/11 08:19:28;;;;;;;10.05;7.15;;;;;31.50;96455.00;;;;8334041;28;21784;-74
2022/05/11 08:23:32;;;;;;;8.30;6.40;;;;;32.00;96449.00;;;;8347414;28;20235;-72
2022/05/11 08:27:36;;;;;;;7.25;6.55;;;;;32.00;96446.00;;;;8346174;28;20690;-72
2022/05/11 08:36:04;;;;;;;5.90;5.43;;;;;32.00;96449.00;;;;8362146;28;20619;-73
2022/05/11 08:40:08;;;;;;;9.68;6.35;;;;;32.40;96450.00;;;;8354410;28;20281;-72
2022/05/11 08:44:15;;;;;;;7.70;6.65;;;;;32.90;96452.00;;;;8355639;28;20236;-73
2022/05/11 08:48:29;;;;;;;7.30;6.18;;;;;32.50;96446.00;;;;8358473;28;20220;-71
2022/05/11 08:52:47;;;;;;;7.03;6.32;;;;;32.50;96444.00;;;;8352324;28;20228;-72
2022/05/11 08:56:52;;;;;;;9.75;6.20;;;;;32.30;96454.00;;;;8345754;28;20312;-71
2022/05/11 09:00:59;;;;;;;4.82;4.43;;;;;32.30;96457.00;;;;8347612;28;20256;-72
2022/05/11 09:05:05;;;;;;;5.47;4.93;;;;;32.10;96441.00;;;;8342133;28;20314;-74
2022/05/11 09:09:08;;;;;;;5.90;4.50;;;;;31.50;96447.00;;;;8342681;28;20224;-72
2022/05/11 09:13:14;;;;;;;4.68;4.28;;;;;31.10;96447.00;;;;8336989;28;20234;-73
2022/05/11 09:17:25;;;;;;;6.20;5.20;;;;;30.70;96449.00;;;;8349097;28;20236;-74
2022/05/11 09:21:32;;;;;;;5.50;5.00;;;;;30.80;96446.00;;;;8346206;28;20295;-74
2022/05/11 09:25:37;;;;;;;5.45;4.95;;;;;31.00;96437.00;;;;8340367;28;20228;-72
2022/05/11 09:29:42;;;;;;;8.55;4.93;;;;;31.50;96441.00;;;;8344021;28;20570;-70
2022/05/11 09:33:58;;;;;;;6.57;4.70;;;;;31.80;96443.00;;;;8340612;28;20232;-70
2022/05/11 09:38:35;;;;;;;5.25;4.53;;;;;31.80;96440.00;;;;8339343;28;20914;-72
2022/05/11 09:42:50;;;;;;;6.22;4.57;;;;;32.00;96443.00;;;;8346321;28;20217;-73
2022/05/11 09:46:54;;;;;;;5.10;4.60;;;;;32.10;96433.00;;;;8339881;28;20233;-69
2022/05/11 09:51:15;;;;;;;5.45;4.70;;;;;32.60;96439.00;;;;8336267;28;20231;-69
2022/05/11 09:55:28;;;;;;;4.88;4.35;;;;;32.90;96432.00;;;;8339695;28;20251;-74
2022/05/11 09:59:34;;;;;;;5.13;4.63;;;;;32.60;96430.00;;;;8342927;28;20237;-72
2022/05/11 10:03:42;;;;;;;4.63;4.15;;;;;32.30;96427.00;;;;8335792;28;20235;-74
2022/05/11 10:07:49;;;;;;;4.18;3.55;;;;;32.10;96427.00;;;;8345294;28;20232;-69
2022/05/11 10:11:54;;;;;;;3.92;3.50;;;;;32.10;96432.00;;;;8338866;28;20259;-71
2022/05/11 10:25:26;;;;;;;3.53;3.30;;;;;32.80;96416.00;;;;8340720;28;20229;-74
2022/05/11 10:29:44;;;;;;;3.30;3.00;;;;;32.90;96414.00;;;;8338510;28;20271;-70
2022/05/11 10:33:59;;;;;;;6.93;3.55;;;;;33.40;96407.00;;;;8338386;28;20838;-69
2022/05/11 10:38:31;;;;;;;5.00;3.40;;;;;33.40;96404.00;;;;8347555;28;20697;-68
2022/05/11 10:42:36;;;;;;;3.50;3.20;;;;;32.90;96397.00;;;;8333610;28;20228;-69
2022/05/11 10:46:51;;;;;;;3.50;3.20;;;;;32.80;96392.00;;;;8346546;28;20687;-75
2022/05/11 10:51:00;;;;;;;3.90;3.60;;;;;33.00;96398.00;;;;8348109;28;20228;-69
2022/05/11 10:55:18;;;;;;;3.75;3.50;;;;;33.10;96389.00;;;;8340734;28;20232;-68
2022/05/11 10:59:42;;;;;;;4.53;3.80;;;;;33.50;96377.00;;;;8346924;28;21081;-68
2022/05/11 11:04:18;;;;;;;4.25;3.30;;;;;33.80;96381.00;;;;8346103;28;20325;-68
2022/05/11 11:08:31;;;;;;;6.05;3.53;;;;;33.60;96378.00;;;;8330774;28;20235;-70
2022/05/11 11:13:10;;;;;;;6.32;3.45;;;;;33.50;96372.00;;;;8345632;28;21218;-68
2022/05/11 11:17:19;;;;;;;3.47;3.28;;;;;33.80;96357.00;;;;8329758;28;20667;-68
2022/05/11 11:21:24;;;;;;;3.72;3.40;;;;;33.70;96361.00;;;;8348597;28;20242;-68
2022/05/11 11:25:42;;;;;;;3.13;2.92;;;;;34.00;96356.00;;;;8349117;28;20708;-70
2022/05/11 11:30:17;;;;;;;3.85;3.20;;;;;34.20;96353.00;;;;8339504;28;21000;-69
2022/05/11 11:34:23;;;;;;;3.45;3.15;;;;;34.40;96355.00;;;;8337338;28;20240;-70
2022/05/11 11:38:30;;;;;;;3.38;3.00;;;;;34.60;96345.00;;;;8348543;28;20228;-69
2022/05/11 11:42:37;;;;;;;3.28;3.08;;;;;34.40;96347.00;;;;8345710;28;20616;-70
2022/05/11 11:46:41;;;;;;;3.40;3.20;;;;;34.30;96341.00;;;;8335600;28;20248;-71
2022/05/11 11:50:48;;;;;;;3.00;2.80;;;;;34.80;96340.00;;;;8343324;28;20220;-70
2022/05/11 11:54:53;;;;;;;2.92;2.63;;;;;35.00;96332.00;;;;8341610;28;20228;-68
2022/05/11 11:59:03;;;;;;;2.85;2.65;;;;;35.10;96327.00;;;;8347948;28;20689;-69
2022/05/11 12:03:16;;;;;;;3.13;2.50;;;;;34.90;96324.00;;;;8342474;28;20712;-69
2022/05/11 12:16:11;;;;;;;2.88;2.67;;;;;33.70;96299.00;;;;8336478;28;20220;-70
2022/05/11 12:20:18;;;;;;;3.88;3.13;;;;;33.40;96289.00;;;;8336351;28;20220;-71
2022/05/11 12:24:26;;;;;;;2.50;2.30;;;;;32.70;96298.00;;;;8337098;28;20287;-75
2022/05/11 12:28:35;;;;;;;3.60;2.60;;;;;32.20;96299.00;;;;8354308;28;20952;-75
2022/05/11 12:32:41;;;;;;;6.30;3.03;;;;;31.80;96303.00;;;;8337078;28;20255;-74
2022/05/11 12:36:45;;;;;;;3.40;2.58;;;;;31.70;96294.00;;;;8341158;28;20231;-73
2022/05/11 12:40:51;;;;;;;3.83;2.70;;;;;31.50;96284.00;;;;8344589;28;20229;-73
2022/05/11 12:44:56;;;;;;;5.50;2.45;;;;;31.10;96296.00;;;;8332885;28;20232;-72
2022/05/11 12:49:01;;;;;;;3.70;2.60;;;;;31.20;96281.00;;;;8343625;28;20757;-68
2022/05/11 12:53:22;;;;;;;3.28;2.80;;;;;31.10;96282.00;;;;8334820;28;20227;-70
2022/05/11 12:57:36;;;;;;;2.90;2.70;;;;;31.10;96273.00;;;;8342906;28;20209;-69
2022/05/11 13:01:41;;;;;;;2.47;2.28;;;;;31.10;96269.00;;;;8339034;28;20311;-69
2022/05/11 13:05:48;;;;;;;2.60;2.40;;;;;31.10;96266.00;;;;8339933;28;20962;-70
2022/05/11 13:09:54;;;;;;;2.65;2.45;;;;;31.20;96254.00;;;;8345294;28;20225;-70
2022/05/11 13:13:59;;;;;;;2.90;2.70;;;;;31.30;96259.00;;;;8340049;28;20666;-69
2022/05/11 13:18:07;;;;;;;5.72;2.85;;;;;31.20;96251.00;;;;8343660;28;20319;-71
2022/05/11 13:22:14;;;;;;;2.63;2.47;;;;;31.50;96249.00;;;;8340985;28;20689;-70
2022/05/11 13:26:34;;;;;;;2.60;2.40;;;;;32.00;96240.00;;;;8342017;28;20243;-72
2022/05/11 13:30:46;;;;;;;4.18;2.67;;;;;32.30;96246.00;;;;8338669;28;20848;-68
2022/05/11 13:34:51;;;;;;;4.93;2.83;;;;;32.50;96241.00;;;;8339415;28;20883;-69
2022/05/11 13:39:01;;;;;;;4.25;2.60;;;;;32.70;96235.00;;;;8338520;28;20837;-71
2022/05/11 13:43:18;;;;;;;2.83;2.58;;;;;33.10;96234.00;;;;8343821;28;20227;-69
2022/05/11 13:51:52;;;;;;;2.55;2.35;;;;;33.00;96206.00;;;;8354338;28;20240;-72
2022/05/11 13:56:08;;;;;;;2.70;2.50;;;;;33.10;96221.00;;;;8345135;28;21017;-69
2022/05/11 14:00:15;;;;;;;2.70;2.50;;;;;33.70;96206.00;;;;8338288;28;20291;-69
2022/05/11 14:04:24;;;;;;;6.03;5.38;;;;;34.10;96195.00;;;;8341569;28;20235;-72
2022/05/11 14:08:29;;;;;;;11.52;7.43;;;;;34.40;96196.00;;;;8338854;28;20259;-69
2022/05/11 14:12:32;;;;;;;10.40;5.70;;;;;34.90;96189.00;;;;8348001;28;20331;-70
2022/05/11 14:16:36;;;;;;;2.67;2.47;;;;;34.90;96178.00;;;;8340995;28;20220;-70
2022/05/11 14:20:39;;;;;;;2.55;2.25;;;;;34.60;96186.00;;;;8336143;28;20710;-71
2022/05/11 14:24:44;;;;;;;2.95;2.67;;;;;34.70;96180.00;;;;8343013;28;20220;-72
2022/05/11 14:28:47;;;;;;;2.65;2.45;;;;;34.20;96177.00;;;;8343323;28;20235;-71
2022/05/11 14:32:51;;;;;;;6.88;2.80;;;;;34.00;96180.00;;;;8339740;28;20234;-70
2022/05/11 14:36:55;;;;;;;3.03;2.25;;;;;34.20;96173.00;;;;8338132;28;20250;-70
2022/05/11 14:40:59;;;;;;;4.63;2.70;;;;;34.30;96173.00;;;;8333423;28;20229;-72
2022/05/11 14:45:04;;;;;;;3.10;2.80;;;;;34.50;96159.00;;;;8342302;28;20231;-69
2022/05/11 14:49:17;;;;;;;2.97;2.28;;;;;34.50;96163.00;;;;8347304;28;20354;-71
2022/05/11 14:53:21;;;;;;;3.10;2.88;;;;;34.20;96166.00;;;;8350063;28;20230;-70
2022/05/11 15:01:59;;;;;;;7.53;2.90;;;;;33.70;96159.00;;;;8340632;28;20228;-71
2022/05/11 15:06:11;;;;;;;4.60;3.47;;;;;33.40;96145.00;;;;8332212;28;20312;-70
2022/05/11 15:10:16;;;;;;;5.57;3.25;;;;;33.10;96146.00;;;;8335982;28;20227;-70
2022/05/11 15:14:26;;;;;;;4.43;3.00;;;;;33.10;96139.00;;;;8345517;28;20628;-72
2022/05/11 15:18:30;;;;;;;3.10;2.90;;;;;33.00;96138.00;;;;8338464;28;20957;-71
2022/05/11 15:22:34;;;;;;;3.30;2.83;;;;;33.30;96145.00;;;;8341202;28;21051;-71
2022/05/11 15:26:37;;;;;;;6.35;3.45;;;;;33.70;96146.00;;;;8347057;28;20221;-71
2022/05/11 15:30:44;;;;;;;6.88;4.90;;;;;33.50;96127.00;;;;8350368;28;20242;-70
2022/05/11 15:34:48;;;;;;;4.93;3.40;;;;;33.10;96136.00;;;;8342868;28;20278;-70
2022/05/11 15:38:51;;;;;;;3.38;2.70;;;;;32.90;96134.00;;;;8344038;28;20331;-70
2022/05/11 15:42:57;;;;;;;4.82;2.90;;;;;33.20;96123.00;;;;8347556;28;21074;-70
2022/05/11 15:47:22;;;;;;;3.67;2.67;;;;;33.30;96129.00;;;;8342483;28;20593;-68
2022/05/11 15:51:25;;;;;;;4.32;3.00;;;;;33.20;96129.00;;;;8356066;28;20688;-70
2022/05/11 15:55:29;;;;;;;3.13;2.58;;;;;33.00;96117.00;;;;8354484;28;20239;-72
2022/05/11 15:59:33;;;;;;;5.13;2.90;;;;;32.80;96119.00;;;;8337909;28;20666;-71
2022/05/11 16:03:38;;;;;;;3.70;3.00;;;;;32.60;96102.00;;;;8354226;28;20709;-72
2022/05/11 16:07:41;;;;;;;3.45;3.15;;;;;32.60;96111.00;;;;8338745;28;20220;-73
2022/05/11 16:11:45;;;;;;;3.22;2.92;;;;;32.40;96113.00;;;;8338325;28;20918;-71
2022/05/11 16:15:48;;;;;;;6.90;2.90;;;;;32.70;96116.00;;;;8341946;28;20239;-70
2022/05/11 16:19:55;;;;;;;3.15;2.95;;;;;32.70;96100.00;;;;8340791;28;20224;-70
2022/05/11 16:23:58;;;;;;;4.97;3.17;;;;;32.30;96101.00;;;;8337931;28;20333;-70
2022/05/11 16:28:02;;;;;;;2.95;2.75;;;;;32.40;96097.00;;;;8340232;28;20422;-73
2022/05/11 16:32:11;;;;;;;2.97;2.63;;;;;32.40;96098.00;;;;8339567;28;20639;-71
2022/05/11 16:36:17;;;;;;;2.95;2.75;;;;;32.20;96085.00;;;;8344333;28;20248;-70
2022/05/11 16:40:21;;;;;;;2.97;2.78;;;;;32.30;96094.00;;;;8345694;28;20235;-72
2022/05/11 16:44:25;;;;;;;3.50;2.90;;;;;32.30;96090.00;;;;8340507;28;20224;-71
2022/05/11 16:48:28;;;;;;;3.55;2.58;;;;;32.30;96092.00;;;;8345174;28;20229;-71
2022/05/11 16:52:32;;;;;;;5.20;3.08;;;;;32.60;96088.00;;;;8346044;28;20712;-72
2022/05/11 16:56:36;;;;;;;3.28;2.90;;;;;32.80;96092.00;;;;8346597;28;20479;-71
2022/05/11 17:00:39;;;;;;;3.13;2.83;;;;;32.80;96081.00;;;;8348008;28;20791;-71
2022/05/11 17:04:45;;;;;;;2.97;2.78;;;;;32.80;96083.00;;;;8343622;28;20258;-72
2022/05/11 17:08:49;;;;;;;3.60;3.00;;;;;32.90;96083.00;;;;8338041;28;20263;-71
2022/05/11 17:12:53;;;;;;;3.25;2.95;;;;;33.20;96081.00;;;;8338128;28;20638;-73
2022/05/11 17:16:57;;;;;;;4.97;2.78;;;;;33.20;96086.00;;;;8335162;28;20229;-72
2022/05/11 17:21:09;;;;;;;3.58;3.15;;;;;33.30;96079.00;;;;8328704;28;20228;-73
2022/05/11 17:25:22;;;;;;;2.97;2.78;;;;;33.40;96086.00;;;;8312823;28;20235;-72
2022/05/11 17:29:30;;;;;;;3.38;3.08;;;;;33.20;96084.00;;;;8328910;28;20901;-74
2022/05/11 17:33:45;;;;;;;4.10;2.80;;;;;33.30;96093.00;;;;8337127;28;20221;-70
2022/05/11 17:37:54;;;;;;;5.82;3.63;;;;;32.90;96089.00;;;;8325973;28;20268;-72
2022/05/11 17:42:01;;;;;;;6.28;2.92;;;;;32.60;96078.00;;;;8334913;28;20359;-72
2022/05/11 17:46:12;;;;;;;2.70;2.60;;;;;32.20;96085.00;;;;8340799;28;20232;-72
2022/05/11 17:50:23;;;;;;;4.55;2.95;;;;;31.70;96086.00;;;;8318363;28;20224;-72
2022/05/11 17:54:29;;;;;;;4.43;2.83;;;;;30.90;96090.00;;;;8338420;28;20224;-73
2022/05/11 17:58:37;;;;;;;4.72;3.05;;;;;30.10;96095.00;;;;8320296;28;20325;-73
2022/05/11 18:02:43;;;;;;;6.53;3.20;;;;;29.40;96092.00;;;;8327299;28;20769;-72
2022/05/11 18:06:49;;;;;;;4.03;3.63;;;;;28.70;96090.00;;;;8329383;28;20255;-73
2022/05/11 18:10:57;;;;;;;3.88;3.47;;;;;27.90;96088.00;;;;8330979;28;20863;-72
2022/05/11 18:15:13;;;;;;;4.38;3.97;;;;;27.10;96088.00;;;;8308800;28;20977;-72
2022/05/11 18:19:34;;;;;;;4.20;3.90;;;;;26.40;96093.00;;;;8323442;28;20224;-72
2022/05/11 18:23:50;;;;;;;4.00;3.60;;;;;25.60;96089.00;;;;8313752;28;20239;-73
2022/05/11 18:27:58;;;;;;;3.95;3.47;;;;;25.00;96088.00;;;;8329290;28;20286;-72
2022/05/11 18:32:07;;;;;;;6.50;3.50;;;;;24.30;96089.00;;;;8329009;28;20645;-72
2022/05/11 18:36:15;;;;;;;6.78;3.67;;;;;23.70;96093.00;;;;8316377;28;20225;-73
2022/05/11 18:40:22;;;;;;;7.50;4.05;;;;;23.10;96101.00;;;;8326701;28;20232;-74
2022/05/11 18:44:28;;;;;;;4.18;3.85;;;;;22.60;96100.00;;;;8301544;28;20319;-73
2022/05/11 18:48:36;;;;;;;8.40;3.80;;;;;22.10;96102.00;;;;8311890;28;20512;-73
2022/05/11 18:52:47;;;;;;;4.07;3.78;;;;;21.70;96106.00;;;;8333271;28;20225;-84
2022/05/11 18:56:51;;;;;;;9.15;4.65;;;;;21.30;96110.00;;;;8340954;28;20220;-73
2022/05/11 19:00:54;;;;;;;7.45;4.28;;;;;21.00;96119.00;;;;8335318;28;20256;-77
2022/05/11 19:04:59;;;;;;;10.05;4.50;;;;;20.70;96121.00;;;;8341252;28;20252;-77
2022/05/11 19:09:02;;;;;;;5.50;4.07;;;;;20.40;96119.00;;;;8347210;28;20226;-76
2022/05/11 19:13:07;;;;;;;8.65;4.28;;;;;20.20;96124.00;;;;8339770;28;20423;-75
2022/05/11 19:17:10;;;;;;;5.60;4.60;;;;;20.00;96123.00;;;;8341642;28;20240;-77
2022/05/11 19:21:14;;;;;;;4.78;4.38;;;;;19.80;96123.00;;;;8335492;28;20227;-77
2022/05/11 19:25:19;;;;;;;5.38;4.55;;;;;19.50;96127.00;;;;8344607;28;20258;-75
2022/05/11 19:29:22;;;;;;;9.63;5.53;;;;;19.40;96132.00;;;;8331999;28;20233;-77
2022/05/11 19:33:25;;;;;;;5.55;4.80;;;;;19.20;96133.00;;;;8335650;28;20243;-80
2022/05/11 19:37:30;;;;;;;6.57;4.78;;;;;19.10;96128.00;;;;8341110;28;20236;-76
2022/05/11 19:41:34;;;;;;;7.97;5.20;;;;;18.90;96122.00;;;;8336002;28;20867;-75
2022/05/11 19:45:37;;;;;;;5.85;5.15;;;;;18.80;96127.00;;;;8329672;28;20243;-74
2022/05/11 19:49:41;;;;;;;5.38;4.88;;;;;18.70;96135.00;;;;8343411;28;20237;-75
2022/05/11 19:53:46;;;;;;;7.35;5.05;;;;;18.50;96135.00;;;;8339133;28;20988;-73
2022/05/11 19:57:49;;;;;;;8.38;5.38;;;;;18.40;96135.00;;;;8343178;28;20238;-74
2022/05/11 20:01:53;;;;;;;6.65;5.18;;;;;18.30;96136.00;;;;8337142;28;20243;-72
2022/05/11 20:06:00;;;;;;;5.97;5.40;;;;;18.20;96135.00;;;;8343510;28;20259;-73
2022/05/11 20:10:06;;;;;;;5.75;5.18;;;;;18.10;96142.00;;;;8342659;28;20784;-73
2022/05/11 20:14:10;;;;;;;7.35;5.13;;;;;18.10;96145.00;;;;8336796;28;20244;-72
2022/05/11 20:18:14;;;;;;;6.93;5.28;;;;;18.00;96140.00;;;;8340827;28;20228;-74
2022/05/11 20:22:20;;;;;;;9.02;5.07;;;;;17.90;96143.00;;;;8344662;28;20696;-78
2022/05/11 20:26:25;;;;;;;9.88;5.50;;;;;17.80;96135.00;;;;8348713;28;20228;-77
2022/05/11 20:30:29;;;;;;;10.27;6.00;;;;;17.70;96142.00;;;;8352914;28;20224;-75
2022/05/11 20:38:52;;;;;;;6.70;5.50;;;;;17.50;96136.00;;;;8348489;28;20228;-76
2022/05/11 20:42:58;;;;;;;7.32;5.70;;;;;17.40;96132.00;;;;8336747;28;20265;-74
2022/05/11 20:47:01;;;;;;;7.45;6.00;;;;;17.30;96138.00;;;;8351244;28;20316;-74
2022/05/11 20:51:05;;;;;;;7.88;5.60;;;;;17.10;96139.00;;;;8346811;28;20228;-75
2022/05/11 20:55:10;;;;;;;8.30;6.10;;;;;17.00;96135.00;;;;8353170;28;20303;-76
2022/05/11 20:59:16;;;;;;;8.23;5.55;;;;;17.00;96145.00;;;;8343747;28;20252;-74
2022/05/11 21:03:19;;;;;;;9.38;6.05;;;;;16.90;96143.00;;;;8347382;28;20224;-75
2022/05/11 21:07:22;;;;;;;7.50;5.88;;;;;16.80;96148.00;;;;8349791;28;20227;-75
2022/05/11 21:11:25;;;;;;;8.93;6.05;;;;;16.60;96144.00;;;;8347327;28;20307;-74